CheckWX is a tool to help pilots better visualize weather data.  It is not intended as a substitute for an official pre-flight weather briefing.

11:21:24 UTC

CYQR TAF
Regina International Airport
Regina, Canada
TAF CYQR 011141Z 0112/0212 18006KT P6SM FEW030 BKN090 TEMPO 0112/0115 6SM -SHRA BR FEW015 BKN030 OVC090 FM011500 20010KT P6SM FEW040 SCT090 FM011800 20015KT P6SM SCT050 FM020200 18010KT P6SM SKC FM020800 12012KT P6SM SCT120 RMK NXT FCST BY 011800Z

Jul-1@
12:00 UTC

Jul-1 @ 12:00 UTC

Jul-1@
15:00 UTC

Jul-1 @ 15:00 UTC

TAF CYQR 011141Z 0112/0212 18006KT P6SM FEW030 BKN090

Expired

Wind
  • 180° at 6 KTS
Cloud Levels
  • Few at 3,000' AGL
  • Broken at 9,000' AGL

Jul-1@
12:00 UTC

Jul-1 @ 12:00 UTC

Jul-1@
15:00 UTC

Jul-1 @ 15:00 UTC

TEMPO 0112/0115 6SM -SHRA BR FEW015 BKN030 OVC090

Expired

Conditions
Light Showers, Rain, Mist
Cloud Levels
  • Few at 1,500' AGL
  • Broken at 3,000' AGL
  • Overcast at 9,000' AGL

Jul-1@
15:00 UTC

Jul-1 @ 15:00 UTC

Jul-1@
18:00 UTC

Jul-1 @ 18:00 UTC

FM011500 20010KT P6SM FEW040 SCT090

Expired

Wind
  • 200° at 10 KTS
Cloud Levels
  • Few at 4,000' AGL
  • Scattered at 9,000' AGL

Jul-1@
18:00 UTC

Jul-1 @ 18:00 UTC

Jul-2@
02:00 UTC

Jul-2 @ 02:00 UTC

FM011800 20015KT P6SM SCT050

Expired

Wind
  • 200° at 15 KTS
Cloud Levels
  • Scattered at 5,000' AGL

Jul-2@
02:00 UTC

Jul-2 @ 02:00 UTC

Jul-2@
08:00 UTC

Jul-2 @ 08:00 UTC

FM020200 18010KT P6SM SKC

Expired

Wind
  • 180° at 10 KTS
Cloud Levels
  • Clear skies

Jul-2@
08:00 UTC

Jul-2 @ 08:00 UTC

Jul-2@
12:00 UTC

Jul-2 @ 12:00 UTC

FM020800 12012KT P6SM SCT120 RMK NXT FCST BY 011800Z

From

From Standard forecast or significant change

Wind
  • 120° at 12 KTS
Cloud Levels
  • Scattered at 12,000' AGL